createdAt,value
2023-03-02T00:00:42.730Z,0
2023-03-02T00:04:45.780Z,0.421
2023-03-02T00:06:47.256Z,0.702
2023-03-02T00:08:49.192Z,0.702
2023-03-02T00:10:50.677Z,0
2023-03-02T00:14:54.719Z,1.123
2023-03-02T00:16:55.899Z,0
2023-03-02T00:18:57.198Z,0
2023-03-02T00:20:58.945Z,0
2023-03-02T00:23:00.432Z,0
2023-03-02T00:25:02.047Z,0
2023-03-02T00:27:03.337Z,0
2023-03-02T00:29:04.979Z,0
2023-03-02T00:31:06.387Z,0
2023-03-02T00:33:08.183Z,0
2023-03-02T00:35:09.998Z,0
2023-03-02T00:37:11.660Z,0
2023-03-02T00:39:13.182Z,1.544
2023-03-02T00:41:14.259Z,1.684
2023-03-02T00:43:15.897Z,1.684
2023-03-02T00:47:19.685Z,0.28
2023-03-02T00:49:21.318Z,0
2023-03-02T00:51:22.700Z,0
2023-03-02T00:53:24.231Z,0
2023-03-02T00:57:27.537Z,0
2023-03-02T00:59:28.692Z,0
2023-03-02T01:01:29.875Z,0
2023-03-02T01:03:31.060Z,0
2023-03-02T01:05:32.127Z,0
2023-03-02T01:07:33.425Z,0
2023-03-02T01:09:35.030Z,0
2023-03-02T01:11:36.685Z,2.667
2023-03-02T01:13:38.623Z,1.684
2023-03-02T01:15:40.371Z,0.421
2023-03-02T01:17:42.000Z,0.14
2023-03-02T01:19:43.599Z,2.386
2023-03-02T01:21:45.486Z,2.527
2023-03-02T01:23:47.371Z,2.527
2023-03-02T01:25:49.246Z,3.79
2023-03-02T01:29:51.798Z,2.667
2023-03-02T01:31:53.374Z,0.14
2023-03-02T01:33:54.404Z,0
2023-03-02T01:35:55.872Z,0
2023-03-02T01:39:59.124Z,0.982
2023-03-02T01:42:00.217Z,0.14
2023-03-02T01:44:01.953Z,1.684
2023-03-02T01:46:03.519Z,1.544
2023-03-02T01:48:05.280Z,0.28
2023-03-02T01:50:06.934Z,0
2023-03-02T01:52:08.380Z,0
2023-03-02T01:54:10.258Z,0
2023-03-02T01:56:12.105Z,0
2023-03-02T01:58:13.840Z,0
2023-03-02T02:02:16.234Z,0
2023-03-02T02:04:17.901Z,0
2023-03-02T02:06:19.643Z,0
2023-03-02T02:08:21.276Z,0
2023-03-02T02:12:25.133Z,0
2023-03-02T02:14:26.410Z,0
2023-03-02T02:16:27.668Z,0
2023-03-02T02:18:29.110Z,0
2023-03-02T02:22:32.388Z,0
2023-03-02T02:24:33.519Z,0
2023-03-02T02:26:35.421Z,0
2023-03-02T02:28:37.078Z,0
2023-03-02T02:30:39.166Z,0.28
2023-03-02T02:32:40.961Z,0.14
2023-03-02T02:34:42.124Z,0
2023-03-02T02:36:44.152Z,0
2023-03-02T02:38:45.507Z,0
2023-03-02T02:40:47.441Z,0
2023-03-02T02:42:49.007Z,0
2023-03-02T02:44:50.610Z,0
2023-03-02T02:46:52.356Z,0
2023-03-02T02:48:54.067Z,0
2023-03-02T02:50:55.927Z,0
2023-03-02T02:54:58.781Z,0
2023-03-02T02:57:00.679Z,0
2023-03-02T02:59:02.668Z,0
2023-03-02T03:01:03.945Z,0
2023-03-02T03:05:07.008Z,0
2023-03-02T03:05:50.965Z,0
2023-03-02T03:07:52.584Z,0
2023-03-02T03:09:54.168Z,0
2023-03-02T03:11:55.681Z,0
2023-03-02T03:13:57.224Z,0
2023-03-02T03:15:59.007Z,0.842
2023-03-02T03:18:00.284Z,0.14
2023-03-02T03:20:02.409Z,0
2023-03-02T03:22:04.140Z,0
2023-03-02T03:24:05.283Z,0
2023-03-02T03:26:07.306Z,0.14
2023-03-02T03:28:09.388Z,0
2023-03-02T03:32:12.586Z,0
2023-03-02T03:34:13.605Z,0
2023-03-02T03:36:14.706Z,0
2023-03-02T03:38:16.143Z,0
2023-03-02T03:40:17.257Z,0
2023-03-02T03:42:19.009Z,0
2023-03-02T03:44:20.158Z,0
2023-03-02T03:46:22.213Z,0.14
2023-03-02T03:48:23.960Z,0
2023-03-02T03:50:25.795Z,0
2023-03-02T03:52:27.186Z,0
2023-03-02T03:54:28.719Z,1.404
2023-03-02T03:56:31.158Z,0
2023-03-02T03:58:32.644Z,0
2023-03-02T04:00:34.453Z,0.702
2023-03-02T04:02:36.382Z,0
2023-03-02T04:04:37.734Z,0
2023-03-02T04:06:39.272Z,0
2023-03-02T04:08:40.961Z,0
2023-03-02T04:10:42.728Z,0
2023-03-02T04:14:45.377Z,0
2023-03-02T04:16:47.248Z,0
2023-03-02T04:18:48.369Z,0
2023-03-02T04:20:50.183Z,0
2023-03-02T04:24:52.948Z,0
2023-03-02T04:26:54.862Z,0
2023-03-02T04:28:56.360Z,0
2023-03-02T04:30:58.140Z,0
2023-03-02T04:32:59.341Z,0
2023-03-02T04:35:01.215Z,0
2023-03-02T04:37:02.814Z,0
2023-03-02T04:39:04.701Z,0
2023-03-02T04:41:06.681Z,0
2023-03-02T04:43:08.334Z,0
2023-03-02T04:45:09.728Z,0
2023-03-02T04:47:11.342Z,0
2023-03-02T04:49:13.068Z,0
2023-03-02T04:51:14.370Z,0
2023-03-02T04:53:15.862Z,0
2023-03-02T04:55:17.186Z,0
2023-03-02T04:57:18.450Z,0
2023-03-02T04:59:19.984Z,0
2023-03-02T05:01:21.184Z,0
2023-03-02T05:03:22.709Z,0
2023-03-02T05:05:23.993Z,0
2023-03-02T05:07:25.801Z,0
2023-03-02T05:09:26.905Z,0
2023-03-02T05:11:28.810Z,0
2023-03-02T05:13:30.197Z,0
2023-03-02T05:15:31.559Z,0
2023-03-02T05:17:32.713Z,0
2023-03-02T05:19:34.174Z,0
2023-03-02T05:21:36.215Z,0
2023-03-02T05:23:37.524Z,0
2023-03-02T05:25:39.157Z,0
2023-03-02T05:27:40.426Z,0
2023-03-02T05:29:41.755Z,0
2023-03-02T05:31:43.430Z,0
2023-03-02T05:33:44.966Z,0.702
2023-03-02T05:35:46.397Z,1.123
2023-03-02T05:39:49.637Z,0
2023-03-02T05:41:51.312Z,0
2023-03-02T05:43:52.481Z,0
2023-03-02T05:45:54.446Z,0
2023-03-02T05:47:56.392Z,0
2023-03-02T05:49:57.950Z,0
2023-03-02T05:51:59.797Z,0
2023-03-02T05:54:01.019Z,0
2023-03-02T05:56:02.805Z,0
2023-03-02T05:58:04.370Z,0
2023-03-02T06:00:06.305Z,0
2023-03-02T06:02:08.171Z,0
2023-03-02T06:04:09.554Z,0
2023-03-02T06:06:10.744Z,0
2023-03-02T06:08:12.124Z,0
2023-03-02T06:10:13.750Z,0
2023-03-02T06:12:15.769Z,0
2023-03-02T06:14:17.593Z,0
2023-03-02T06:16:19.421Z,0.421
2023-03-02T06:18:20.946Z,0
2023-03-02T06:20:22.085Z,0
2023-03-02T06:22:24.007Z,0
2023-03-02T06:24:25.198Z,0
2023-03-02T06:26:28.348Z,0
2023-03-02T06:28:32.846Z,0
2023-03-02T06:30:33.550Z,0
2023-03-02T06:32:35.391Z,0
2023-03-02T06:34:36.518Z,0
2023-03-02T06:36:38.711Z,1.263
2023-03-02T06:38:40.163Z,1.404
2023-03-02T06:40:41.679Z,0
2023-03-02T06:44:44.709Z,0
2023-03-02T06:46:46.519Z,0
2023-03-02T06:48:48.178Z,0
2023-03-02T06:50:49.707Z,0
2023-03-02T06:54:53.336Z,0
2023-03-02T06:56:55.024Z,0
2023-03-02T06:58:56.105Z,0.14
2023-03-02T07:00:57.910Z,0
2023-03-02T07:05:00.863Z,0
2023-03-02T07:07:02.755Z,0
2023-03-02T07:09:04.663Z,0
2023-03-02T07:11:05.778Z,0
2023-03-02T07:13:09.204Z,0
2023-03-02T07:15:08.722Z,0
2023-03-02T07:17:10.044Z,0
2023-03-02T07:19:11.605Z,0.14
2023-03-02T07:21:13.006Z,1.965
2023-03-02T07:23:14.554Z,0.842
2023-03-02T07:25:15.947Z,0.842
2023-03-02T07:27:17.278Z,0
2023-03-02T07:29:18.412Z,0.842
2023-03-02T07:31:20.009Z,0.982
2023-03-02T07:33:21.831Z,1.404
2023-03-02T07:35:23.043Z,1.825
2023-03-02T07:37:25.641Z,0
2023-03-02T07:39:27.327Z,1.123
2023-03-02T07:41:28.939Z,0.14
2023-03-02T07:43:30.195Z,0.982
2023-03-02T07:45:31.496Z,0
2023-03-02T07:47:33.292Z,1.404
2023-03-02T07:49:34.203Z,0
2023-03-02T07:51:35.671Z,1.965
2023-03-02T07:53:37.190Z,0.28
2023-03-02T07:55:38.836Z,0.982
2023-03-02T07:57:40.006Z,0.842
2023-03-02T07:59:41.519Z,1.965
2023-03-02T08:01:43.488Z,3.369
2023-03-02T08:03:44.867Z,2.808
2023-03-02T08:05:46.630Z,0.14
2023-03-02T08:07:48.291Z,0.14
2023-03-02T08:09:49.556Z,0
2023-03-02T08:11:51.373Z,0
2023-03-02T08:13:52.472Z,0
2023-03-02T08:15:53.774Z,2.948
2023-03-02T08:17:55.779Z,0
2023-03-02T08:19:56.833Z,2.386
2023-03-02T08:21:57.722Z,2.527
2023-03-02T08:23:59.626Z,3.51
2023-03-02T08:26:00.567Z,0.842
2023-03-02T08:28:01.603Z,2.527
2023-03-02T08:30:03.403Z,2.948
2023-03-02T08:32:05.307Z,2.667
2023-03-02T08:34:06.839Z,6.458
2023-03-02T08:36:08.843Z,4.633
2023-03-02T08:38:09.501Z,4.492
2023-03-02T08:40:10.433Z,0.28
2023-03-02T08:42:11.929Z,3.229
2023-03-02T08:44:13.483Z,6.037
2023-03-02T08:46:15.009Z,11.372
2023-03-02T08:48:16.821Z,2.667
2023-03-02T08:50:18.189Z,3.229
2023-03-02T08:52:21.026Z,3.65
2023-03-02T08:54:22.776Z,5.335
2023-03-02T08:56:24.080Z,5.616
2023-03-02T08:58:25.248Z,5.054
2023-03-02T09:00:26.557Z,5.896
2023-03-02T09:02:27.946Z,3.79
2023-03-02T09:04:29.674Z,4.633
2023-03-02T09:06:31.033Z,3.088
2023-03-02T09:08:32.382Z,3.229
2023-03-02T09:10:33.785Z,3.088
2023-03-02T09:12:35.154Z,2.527
2023-03-02T09:14:36.659Z,4.212
2023-03-02T09:16:37.665Z,4.071
2023-03-02T09:18:39.029Z,5.896
2023-03-02T09:20:40.786Z,6.177
2023-03-02T09:22:42.438Z,3.229
2023-03-02T09:24:44.196Z,4.492
2023-03-02T09:26:45.280Z,10.53
2023-03-02T09:28:46.571Z,4.492
2023-03-02T09:30:48.001Z,5.896
2023-03-02T09:32:49.220Z,3.51
2023-03-02T09:34:50.120Z,3.931
2023-03-02T09:36:51.569Z,4.633
2023-03-02T09:38:52.653Z,4.212
2023-03-02T09:40:53.714Z,3.79
2023-03-02T09:42:55.563Z,1.684
2023-03-02T09:44:56.626Z,6.318
2023-03-02T09:46:58.312Z,4.773
2023-03-02T09:49:00.741Z,7.16
2023-03-02T09:51:01.581Z,8.424
2023-03-02T09:51:45.369Z,2.386
2023-03-02T09:53:47.185Z,8.002
2023-03-02T09:55:49.015Z,1.544
2023-03-02T09:57:50.838Z,9.266
2023-03-02T09:59:52.642Z,2.386
2023-03-02T10:01:54.176Z,3.51
2023-03-02T10:05:57.133Z,4.212
2023-03-02T10:07:59.476Z,5.896
2023-03-02T10:10:00.162Z,6.318
2023-03-02T10:12:01.898Z,6.318
2023-03-02T10:14:03.620Z,4.914
2023-03-02T10:16:05.528Z,5.194
2023-03-02T10:18:07.362Z,6.318
2023-03-02T10:20:08.832Z,5.335
2023-03-02T10:22:10.216Z,4.071
2023-03-02T10:24:11.253Z,7.581
2023-03-02T10:26:12.178Z,3.79
2023-03-02T10:28:14.014Z,1.544
2023-03-02T10:30:15.463Z,6.177
2023-03-02T10:32:16.433Z,7.581
2023-03-02T10:34:18.192Z,5.194
2023-03-02T10:38:20.633Z,6.037
2023-03-02T10:40:21.771Z,6.879
2023-03-02T10:42:22.899Z,4.071
2023-03-02T10:44:23.927Z,8.704
2023-03-02T10:48:26.304Z,4.352
2023-03-02T10:50:27.417Z,3.51
2023-03-02T10:52:28.845Z,7.02
2023-03-02T10:54:30.038Z,4.773
2023-03-02T10:56:31.980Z,3.931
2023-03-02T10:58:33.373Z,3.65
2023-03-02T11:00:35.666Z,3.931
2023-03-02T11:02:37.300Z,8.845
2023-03-02T11:04:38.370Z,4.352
2023-03-02T11:06:39.819Z,4.212
2023-03-02T11:08:41.026Z,9.828
2023-03-02T11:10:42.837Z,3.79
2023-03-02T11:12:44.021Z,7.581
2023-03-02T11:14:46.014Z,4.352
2023-03-02T11:16:47.208Z,6.318
2023-03-02T11:20:50.581Z,8.424
2023-03-02T11:22:52.161Z,5.756
2023-03-02T11:24:53.131Z,6.318
2023-03-02T11:26:54.110Z,5.616
2023-03-02T11:28:55.412Z,2.386
2023-03-02T11:30:57.238Z,4.352
2023-03-02T11:32:58.408Z,9.968
2023-03-02T11:35:00.223Z,6.318
2023-03-02T11:37:01.350Z,5.756
2023-03-02T11:39:02.896Z,9.828
2023-03-02T11:41:04.145Z,3.088
2023-03-02T11:43:06.004Z,5.616
2023-03-02T11:45:07.785Z,2.527
2023-03-02T11:47:09.237Z,11.091
2023-03-02T11:49:10.736Z,10.81
2023-03-02T11:51:12.239Z,7.3
2023-03-02T11:53:14.137Z,4.492
2023-03-02T11:55:15.356Z,7.722
2023-03-02T11:57:16.779Z,5.194
2023-03-02T11:59:18.292Z,7.3
2023-03-02T12:01:19.968Z,1.965
2023-03-02T12:03:21.682Z,6.739
2023-03-02T12:05:23.026Z,2.527
2023-03-02T12:07:24.816Z,2.246
2023-03-02T12:09:25.899Z,5.616
2023-03-02T12:11:26.797Z,8.704
2023-03-02T12:13:27.995Z,8.143
2023-03-02T12:15:29.357Z,12.636
2023-03-02T12:17:31.186Z,7.722
2023-03-02T12:19:32.592Z,4.212
2023-03-02T12:21:33.831Z,8.985
2023-03-02T12:23:35.652Z,6.177
2023-03-02T12:25:37.456Z,4.773
2023-03-02T12:27:38.847Z,7.02
2023-03-02T12:29:40.237Z,6.739
2023-03-02T12:31:41.905Z,7.862
2023-03-02T12:33:43.373Z,4.212
2023-03-02T12:35:45.065Z,5.896
2023-03-02T12:37:46.222Z,6.739
2023-03-02T12:39:47.731Z,10.67
2023-03-02T12:41:49.419Z,5.475
2023-03-02T12:43:50.535Z,2.527
2023-03-02T12:45:51.580Z,2.106
2023-03-02T12:47:53.277Z,4.914
2023-03-02T12:49:54.124Z,4.492
2023-03-02T12:51:55.634Z,6.458
2023-03-02T12:53:57.324Z,6.037
2023-03-02T12:55:58.277Z,5.756
2023-03-02T12:57:59.850Z,8.704
2023-03-02T13:02:02.732Z,2.948
2023-03-02T13:04:04.111Z,7.581
2023-03-02T13:06:05.715Z,5.756
2023-03-02T13:08:07.044Z,4.071
2023-03-02T13:12:09.812Z,8.564
2023-03-02T13:14:11.302Z,6.458
2023-03-02T13:16:13.062Z,8.845
2023-03-02T13:18:14.218Z,5.054
2023-03-02T13:20:15.910Z,8.143
2023-03-02T13:22:17.707Z,1.684
2023-03-02T13:24:19.243Z,1.825
2023-03-02T13:26:20.299Z,5.054
2023-03-02T13:28:21.953Z,2.527
2023-03-02T13:30:23.503Z,4.773
2023-03-02T13:32:24.603Z,6.458
2023-03-02T13:34:26.280Z,4.773
2023-03-02T13:36:27.659Z,3.369
2023-03-02T13:38:29.364Z,6.177
2023-03-02T13:40:30.575Z,6.879
2023-03-02T13:44:33.314Z,3.088
2023-03-02T13:46:35.164Z,5.896
2023-03-02T13:48:36.203Z,6.037
2023-03-02T13:50:38.016Z,7.02
2023-03-02T13:54:40.750Z,10.67
2023-03-02T13:56:42.043Z,4.212
2023-03-02T13:58:43.572Z,11.232
2023-03-02T14:00:45.036Z,5.335
2023-03-02T14:02:46.224Z,5.194
2023-03-02T14:04:47.568Z,5.896
2023-03-02T14:06:48.370Z,6.879
2023-03-02T14:08:49.977Z,3.931
2023-03-02T14:10:51.152Z,5.335
2023-03-02T14:12:52.300Z,2.667
2023-03-02T14:14:53.885Z,5.335
2023-03-02T14:16:55.078Z,4.773
2023-03-02T14:18:56.454Z,6.458
2023-03-02T14:20:58.188Z,6.177
2023-03-02T14:22:59.412Z,1.123
2023-03-02T14:25:00.929Z,2.808
2023-03-02T14:27:01.935Z,2.386
2023-03-02T14:29:05.644Z,5.335
2023-03-02T14:31:05.514Z,0.702
2023-03-02T14:33:06.873Z,3.229
2023-03-02T14:35:08.142Z,1.825
2023-03-02T14:37:09.544Z,2.386
2023-03-02T14:39:11.234Z,4.071
2023-03-02T14:41:12.688Z,2.527
2023-03-02T14:43:13.691Z,7.16
2023-03-02T14:45:15.210Z,5.335
2023-03-02T14:47:16.369Z,6.739
2023-03-02T14:49:18.065Z,2.667
2023-03-02T14:51:19.128Z,4.212
2023-03-02T14:53:20.868Z,11.653
2023-03-02T14:55:23.294Z,4.633
2023-03-02T14:57:24.320Z,1.544
2023-03-02T14:59:25.800Z,4.492
2023-03-02T15:01:27.184Z,5.194
2023-03-02T15:03:28.632Z,2.667
2023-03-02T15:05:29.606Z,3.229
2023-03-02T15:07:30.848Z,4.071
2023-03-02T15:09:32.468Z,5.896
2023-03-02T15:11:33.769Z,3.088
2023-03-02T15:13:34.905Z,3.79
2023-03-02T15:15:36.658Z,4.773
2023-03-02T15:17:37.692Z,2.106
2023-03-02T15:19:38.805Z,5.616
2023-03-02T15:21:40.604Z,1.123
2023-03-02T15:23:42.147Z,6.037
2023-03-02T15:25:43.279Z,2.808
2023-03-02T15:27:44.441Z,4.773
2023-03-02T15:29:45.424Z,6.458
2023-03-02T15:31:46.409Z,2.527
2023-03-02T15:35:48.913Z,1.544
2023-03-02T15:37:49.835Z,5.896
2023-03-02T15:39:51.196Z,6.318
2023-03-02T15:41:52.346Z,2.386
2023-03-02T15:43:53.584Z,3.51
2023-03-02T15:45:54.656Z,1.965
2023-03-02T15:47:55.893Z,4.352
2023-03-02T15:49:56.914Z,4.492
2023-03-02T15:51:58.266Z,1.965
2023-03-02T15:53:59.736Z,2.667
2023-03-02T15:56:00.742Z,1.263
2023-03-02T15:58:01.644Z,0.28
2023-03-02T16:00:05.270Z,2.808
2023-03-02T16:02:04.750Z,1.123
2023-03-02T16:04:06.309Z,0.561
2023-03-02T16:08:09.286Z,3.229
2023-03-02T16:10:11.002Z,0.842
2023-03-02T16:12:12.065Z,0.561
2023-03-02T16:14:13.895Z,1.123
2023-03-02T16:18:16.897Z,0.14
2023-03-02T16:20:17.977Z,2.106
2023-03-02T16:22:19.748Z,0.421
2023-03-02T16:24:20.850Z,1.825
2023-03-02T16:26:22.357Z,0.14
2023-03-02T16:28:23.364Z,0
2023-03-02T16:30:24.395Z,0
2023-03-02T16:32:26.296Z,0
2023-03-02T16:34:27.527Z,0
2023-03-02T16:36:28.629Z,0.421
2023-03-02T16:37:12.437Z,1.123
2023-03-02T16:39:14.233Z,1.825
2023-03-02T16:41:15.817Z,1.544
2023-03-02T16:43:17.459Z,0
2023-03-02T16:45:19.301Z,0
2023-03-02T16:47:21.000Z,0
2023-03-02T16:49:22.759Z,0
2023-03-02T16:51:24.426Z,0
2023-03-02T16:53:26.022Z,0
2023-03-02T16:55:26.997Z,0
2023-03-02T16:57:28.134Z,0
2023-03-02T16:59:29.476Z,0
2023-03-02T17:01:30.503Z,0
2023-03-02T17:03:31.783Z,0
2023-03-02T17:05:33.540Z,0
2023-03-02T17:07:34.706Z,0
2023-03-02T17:09:36.004Z,0.561
2023-03-02T17:11:37.579Z,0.421
2023-03-02T17:13:38.979Z,0
2023-03-02T17:15:40.223Z,0
2023-03-02T17:17:41.228Z,0
2023-03-02T17:19:42.810Z,0
2023-03-02T17:21:44.048Z,0
2023-03-02T17:23:45.869Z,0
2023-03-02T17:25:47.798Z,0
2023-03-02T17:27:49.302Z,1.544
2023-03-02T17:29:50.842Z,0.14
2023-03-02T17:31:52.446Z,0
2023-03-02T17:33:53.373Z,0
2023-03-02T17:35:54.545Z,1.404
2023-03-02T17:37:55.550Z,1.544
2023-03-02T17:39:56.531Z,0
2023-03-02T17:43:59.365Z,0.842
2023-03-02T17:46:01.268Z,0.28
2023-03-02T17:48:02.340Z,1.684
2023-03-02T17:50:03.313Z,2.106
2023-03-02T17:54:06.247Z,0.14
2023-03-02T17:56:07.511Z,0.561
2023-03-02T17:58:09.509Z,0.421
2023-03-02T18:00:11.375Z,1.544
2023-03-02T18:02:13.315Z,2.386
2023-03-02T18:04:14.960Z,0
2023-03-02T18:06:16.508Z,1.825
2023-03-02T18:08:18.085Z,0.14
2023-03-02T18:10:19.761Z,0.14
2023-03-02T18:12:20.893Z,0.14
2023-03-02T18:14:22.520Z,0.982
2023-03-02T18:16:24.090Z,5.335
2023-03-02T18:18:25.248Z,2.106
2023-03-02T18:20:26.840Z,5.335
2023-03-02T18:22:28.007Z,2.246
2023-03-02T18:26:31.053Z,0.561
2023-03-02T18:28:32.976Z,2.246
2023-03-02T18:30:34.022Z,0.421
2023-03-02T18:32:35.166Z,0.842
2023-03-02T18:36:37.725Z,1.965
2023-03-02T18:38:39.304Z,0
2023-03-02T18:40:41.148Z,2.246
2023-03-02T18:42:42.896Z,0.421
2023-03-02T18:44:44.639Z,2.106
2023-03-02T18:48:46.930Z,0.982
2023-03-02T18:50:48.386Z,1.404
2023-03-02T18:52:49.893Z,0.14
2023-03-02T18:54:51.206Z,0.702
2023-03-02T18:58:55.084Z,0.14
2023-03-02T19:00:56.366Z,0.421
2023-03-02T19:02:57.756Z,0.982
2023-03-02T19:04:59.160Z,5.896
2023-03-02T19:09:02.289Z,0.842
2023-03-02T19:11:04.299Z,3.088
2023-03-02T19:13:05.239Z,0
2023-03-02T19:15:06.729Z,4.914
2023-03-02T19:19:10.088Z,1.123
2023-03-02T19:21:11.282Z,4.914
2023-03-02T19:23:12.455Z,2.246
2023-03-02T19:25:14.361Z,0.421
2023-03-02T19:27:16.140Z,0
2023-03-02T19:29:17.987Z,0
2023-03-02T19:31:19.487Z,0
2023-03-02T19:33:20.952Z,2.808
2023-03-02T19:35:22.060Z,1.404
2023-03-02T19:37:23.699Z,0.702
2023-03-02T19:39:25.109Z,0.28
2023-03-02T19:41:26.708Z,0.561
2023-03-02T19:43:27.804Z,0
2023-03-02T19:45:29.632Z,0
2023-03-02T19:47:30.995Z,1.123
2023-03-02T19:51:34.385Z,0
2023-03-02T19:53:35.476Z,0
2023-03-02T19:55:36.744Z,0.982
2023-03-02T19:57:37.947Z,0.28
2023-03-02T19:59:39.105Z,0.982
2023-03-02T20:01:40.285Z,0.421
2023-03-02T20:03:41.534Z,2.106
2023-03-02T20:05:43.012Z,0
2023-03-02T20:07:44.816Z,0
2023-03-02T20:09:46.585Z,1.123
2023-03-02T20:11:47.695Z,0.561
2023-03-02T20:13:49.319Z,0
2023-03-02T20:15:51.017Z,0
2023-03-02T20:17:52.481Z,2.527
2023-03-02T20:19:54.310Z,0
2023-03-02T20:21:56.144Z,0
2023-03-02T20:23:57.716Z,0
2023-03-02T20:25:59.557Z,0
2023-03-02T20:30:03.341Z,0
2023-03-02T20:32:04.929Z,2.667
2023-03-02T20:34:06.716Z,0.561
2023-03-02T20:36:08.376Z,0
2023-03-02T20:38:09.926Z,0
2023-03-02T20:40:11.935Z,1.684
2023-03-02T20:42:13.107Z,1.544
2023-03-02T20:44:14.839Z,0.842
2023-03-02T20:46:15.287Z,1.123
2023-03-02T20:48:16.360Z,0.982
2023-03-02T20:50:18.367Z,0
2023-03-02T20:52:19.814Z,0
2023-03-02T20:54:21.839Z,0
2023-03-02T20:56:23.355Z,0
2023-03-02T20:58:24.557Z,0
2023-03-02T21:00:26.191Z,1.123
2023-03-02T21:02:27.340Z,0.421
2023-03-02T21:04:29.023Z,0
2023-03-02T21:06:30.218Z,0
2023-03-02T21:08:34.001Z,0.702
2023-03-02T21:10:33.617Z,2.386
2023-03-02T21:12:35.163Z,1.544
2023-03-02T21:14:36.200Z,0.702
2023-03-02T21:16:38.100Z,0
2023-03-02T21:18:39.425Z,0
2023-03-02T21:20:41.249Z,0
2023-03-02T21:22:42.369Z,0
2023-03-02T21:24:43.748Z,0
2023-03-02T21:26:45.195Z,0
2023-03-02T21:28:46.840Z,0
2023-03-02T21:30:48.321Z,0
2023-03-02T21:32:50.281Z,0
2023-03-02T21:34:51.577Z,0
2023-03-02T21:36:53.336Z,0
2023-03-02T21:38:54.685Z,0
2023-03-02T21:40:56.037Z,0
2023-03-02T21:42:57.052Z,0
2023-03-02T21:44:58.748Z,0
2023-03-02T21:47:00.174Z,0
2023-03-02T21:49:01.820Z,0
2023-03-02T21:51:03.276Z,0
2023-03-02T21:53:04.526Z,0
2023-03-02T21:55:06.003Z,0
2023-03-02T21:57:07.503Z,0
2023-03-02T21:59:08.829Z,0
2023-03-02T22:01:10.417Z,0
2023-03-02T22:03:11.589Z,0
2023-03-02T22:05:13.347Z,1.404
2023-03-02T22:07:15.253Z,0.702
2023-03-02T22:09:16.812Z,1.544
2023-03-02T22:11:18.138Z,0.702
2023-03-02T22:15:21.248Z,0
2023-03-02T22:17:24.627Z,0
2023-03-02T22:19:25.097Z,0
2023-03-02T22:21:26.500Z,0
2023-03-02T22:25:29.304Z,0
2023-03-02T22:27:30.478Z,0
2023-03-02T22:29:32.154Z,0
2023-03-02T22:31:33.980Z,0
2023-03-02T22:33:35.888Z,0
2023-03-02T22:35:37.058Z,0
2023-03-02T22:37:38.726Z,0
2023-03-02T22:39:42.109Z,0
2023-03-02T22:41:42.261Z,0
2023-03-02T22:43:43.594Z,0
2023-03-02T22:45:45.644Z,0
2023-03-02T22:47:47.153Z,0
2023-03-02T22:49:48.542Z,0.14
2023-03-02T22:51:50.286Z,1.544
2023-03-02T22:53:51.476Z,0.842
2023-03-02T22:57:55.295Z,0
2023-03-02T22:59:56.407Z,0
2023-03-02T23:01:57.525Z,0
2023-03-02T23:03:59.707Z,0
2023-03-02T23:08:02.530Z,0
2023-03-02T23:10:04.404Z,0
2023-03-02T23:12:06.386Z,0
2023-03-02T23:14:07.815Z,0
2023-03-02T23:16:09.642Z,1.965
2023-03-02T23:18:11.282Z,0
2023-03-02T23:20:12.743Z,0
2023-03-02T23:22:14.234Z,0
2023-03-02T23:24:59.773Z,0.14
2023-03-02T23:27:01.778Z,0
2023-03-02T23:29:03.480Z,0.14
2023-03-02T23:31:05.089Z,0
2023-03-02T23:33:06.762Z,0
2023-03-02T23:35:08.173Z,0
2023-03-02T23:37:09.403Z,0
2023-03-02T23:39:10.575Z,0
2023-03-02T23:41:12.314Z,0
2023-03-02T23:43:13.994Z,0
2023-03-02T23:45:15.371Z,0
2023-03-02T23:47:16.911Z,0
2023-03-02T23:49:18.937Z,0
2023-03-02T23:51:20.372Z,0
2023-03-02T23:53:21.743Z,0
2023-03-02T23:55:23.740Z,0
2023-03-02T23:57:24.903Z,0
2023-03-02T23:59:26.191Z,0
